createdAt,value
2022-08-05T00:01:55.211Z,50.65
2022-08-05T00:06:01.798Z,50.29
2022-08-05T00:08:41.066Z,50.01
2022-08-05T00:11:48.451Z,50.91
2022-08-05T00:15:54.023Z,50.93
2022-08-05T00:18:25.793Z,50.87
2022-08-05T00:21:38.841Z,51.72
2022-08-05T00:24:48.604Z,52.28
2022-08-05T00:28:00.204Z,53.00
2022-08-05T00:31:07.501Z,52.26
2022-08-05T00:34:56.489Z,51.97
2022-08-05T00:37:53.587Z,51.80
2022-08-05T00:41:01.939Z,51.57
2022-08-05T00:44:07.198Z,51.51
2022-08-05T00:47:12.122Z,50.77
2022-08-05T00:50:21.456Z,51.16
2022-08-05T00:53:45.432Z,51.39
2022-08-05T00:56:55.866Z,50.50
2022-08-05T01:00:02.423Z,50.68
2022-08-05T01:03:22.756Z,50.84
2022-08-05T01:06:32.570Z,50.69
2022-08-05T01:09:39.285Z,51.15
2022-08-05T01:13:03.222Z,51.07
2022-08-05T01:16:26.618Z,51.85
2022-08-05T01:20:02.341Z,51.79
2022-08-05T01:23:15.346Z,51.13
2022-08-05T01:26:52.867Z,52.68
2022-08-05T01:30:17.736Z,52.41
2022-08-05T01:33:35.378Z,52.98
2022-08-05T01:36:51.059Z,52.43
2022-08-05T01:39:59.101Z,51.98
2022-08-05T01:43:05.669Z,52.28
2022-08-05T01:46:16.410Z,52.33
2022-08-05T01:50:00.253Z,52.74
2022-08-05T01:53:06.402Z,53.39
2022-08-05T01:58:11.437Z,52.92
2022-08-05T01:59:47.095Z,52.10
2022-08-05T02:02:59.931Z,53.98
2022-08-05T02:06:24.107Z,53.44
2022-08-05T02:09:38.138Z,53.35
2022-08-05T02:12:54.227Z,52.45
2022-08-05T02:16:06.079Z,54.04
2022-08-05T02:19:20.250Z,53.76
2022-08-05T02:22:32.764Z,53.77
2022-08-05T02:25:50.140Z,54.12
2022-08-05T02:28:58.122Z,53.50
2022-08-05T02:32:04.709Z,52.67
2022-08-05T02:35:15.490Z,54.70
2022-08-05T02:38:35.547Z,54.39
2022-08-05T02:41:58.084Z,54.18
2022-08-05T02:45:06.494Z,53.81
2022-08-05T02:48:13.026Z,52.89
2022-08-05T02:51:28.554Z,53.83
2022-08-05T02:54:50.666Z,53.92
2022-08-05T02:58:09.763Z,53.41
2022-08-05T03:01:25.045Z,54.37
2022-08-05T03:04:32.069Z,53.42
2022-08-05T03:07:59.199Z,53.68
2022-08-05T03:11:54.843Z,53.01
2022-08-05T03:14:30.296Z,52.69
2022-08-05T03:17:34.733Z,52.01
2022-08-05T03:20:48.767Z,52.57
2022-08-05T03:23:56.351Z,53.52
2022-08-05T03:27:02.185Z,54.55
2022-08-05T03:30:09.067Z,53.83
2022-08-05T03:33:18.077Z,53.06
2022-08-05T03:36:28.027Z,52.60
2022-08-05T03:39:57.748Z,52.73
2022-08-05T03:43:01.452Z,52.86
2022-08-05T03:46:29.809Z,52.99
2022-08-05T03:49:51.347Z,53.29
2022-08-05T03:55:33.980Z,53.56
2022-08-05T03:56:41.330Z,54.71
2022-08-05T03:59:54.894Z,53.94
2022-08-05T04:03:03.053Z,53.75
2022-08-05T04:06:09.714Z,53.86
2022-08-05T04:09:14.440Z,53.39
2022-08-05T04:12:27.692Z,53.83
2022-08-05T04:15:35.921Z,55.04
2022-08-05T04:18:41.224Z,53.91
2022-08-05T04:21:45.880Z,53.51
2022-08-05T04:25:12.488Z,53.11
2022-08-05T04:28:30.921Z,52.71
2022-08-05T04:31:39.485Z,52.75
2022-08-05T04:34:43.693Z,52.39
2022-08-05T04:38:03.011Z,52.33
2022-08-05T04:41:10.747Z,53.04
2022-08-05T04:44:21.491Z,52.74
2022-08-05T04:47:38.562Z,52.42
2022-08-05T04:51:03.117Z,51.59
2022-08-05T04:54:15.700Z,50.90
2022-08-05T04:57:20.306Z,50.06
2022-08-05T05:00:26.453Z,49.22
2022-08-05T05:03:41.931Z,50.06
2022-08-05T05:06:52.025Z,49.69
2022-08-05T05:10:06.321Z,48.82
2022-08-05T05:13:11.774Z,48.68
2022-08-05T05:16:20.087Z,47.46
2022-08-05T05:19:36.539Z,46.81
2022-08-05T05:22:49.197Z,46.12
2022-08-05T05:26:00.500Z,45.56
2022-08-05T05:29:13.649Z,44.74
2022-08-05T05:32:21.236Z,43.63
2022-08-05T05:35:31.583Z,43.92
2022-08-05T05:38:42.840Z,43.39
2022-08-05T05:41:54.246Z,42.98
2022-08-05T05:45:00.436Z,42.01
2022-08-05T05:48:11.008Z,41.62
2022-08-05T05:51:24.003Z,40.78
2022-08-05T05:54:50.537Z,40.59
2022-08-05T05:57:54.468Z,40.92
2022-08-05T06:01:12.719Z,40.21
2022-08-05T06:04:20.571Z,39.56
2022-08-05T06:07:41.819Z,39.25
2022-08-05T06:10:52.500Z,39.35
2022-08-05T06:13:57.662Z,38.38
2022-08-05T06:17:22.388Z,38.24
2022-08-05T06:20:30.843Z,37.96
2022-08-05T06:23:43.924Z,38.61
2022-08-05T06:26:51.671Z,37.18
2022-08-05T06:30:02.736Z,37.69
2022-08-05T06:33:19.013Z,36.22
2022-08-05T06:36:25.963Z,36.91
2022-08-05T06:39:32.635Z,36.00
2022-08-05T06:42:36.792Z,36.07
2022-08-05T06:46:06.761Z,34.77
2022-08-05T06:49:08.372Z,34.99
2022-08-05T06:52:37.336Z,33.91
2022-08-05T06:55:42.020Z,32.51
2022-08-05T06:58:46.759Z,31.68
2022-08-05T07:01:52.872Z,31.18
2022-08-05T07:04:57.194Z,30.10
2022-08-05T07:08:03.754Z,29.35
2022-08-05T07:11:08.396Z,28.77
2022-08-05T07:14:37.031Z,29.21
2022-08-05T07:18:08.536Z,27.04
2022-08-05T07:21:08.193Z,28.26
2022-08-05T07:24:15.376Z,27.68
2022-08-05T07:27:19.077Z,28.06
2022-08-05T07:30:31.954Z,26.98
2022-08-05T07:33:37.679Z,26.23
2022-08-05T07:36:45.792Z,25.62
2022-08-05T07:40:26.951Z,25.37
2022-08-05T07:43:21.293Z,25.68
2022-08-05T07:46:26.575Z,24.94
2022-08-05T07:49:30.975Z,25.18
2022-08-05T07:52:39.961Z,24.33
2022-08-05T07:56:06.172Z,23.71
2022-08-05T07:59:09.638Z,23.72
2022-08-05T08:02:16.429Z,23.53
2022-08-05T08:09:14.393Z,21.18
2022-08-05T08:12:49.332Z,19.77
2022-08-05T08:16:35.401Z,19.49
2022-08-05T08:20:22.604Z,19.03
2022-08-05T08:24:01.161Z,20.11
2022-08-05T08:27:01.749Z,20.13
2022-08-05T08:30:32.787Z,20.99
2022-08-05T08:33:40.739Z,21.79
2022-08-05T08:37:03.391Z,21.50
2022-08-05T08:40:22.595Z,21.39
2022-08-05T08:45:19.347Z,22.56
2022-08-05T08:46:53.958Z,21.86
2022-08-05T08:50:30.919Z,21.63
2022-08-05T08:53:40.208Z,21.66
2022-08-05T08:56:49.555Z,22.47
2022-08-05T08:59:56.130Z,22.51
2022-08-05T09:03:02.552Z,22.39
2022-08-05T09:06:11.085Z,22.43
2022-08-05T09:09:17.524Z,22.99
2022-08-05T09:12:27.794Z,23.25
2022-08-05T09:15:31.995Z,22.71
2022-08-05T09:18:44.987Z,23.19
2022-08-05T09:22:21.829Z,24.09
2022-08-05T09:25:45.831Z,23.79
2022-08-05T09:28:48.989Z,23.62
2022-08-05T09:32:51.178Z,24.37
2022-08-05T09:35:32.919Z,23.48
2022-08-05T09:38:37.315Z,24.01
2022-08-05T09:41:58.504Z,24.00
2022-08-05T09:45:17.392Z,23.61
2022-08-05T09:48:27.230Z,23.99
2022-08-05T09:51:36.494Z,24.05
2022-08-05T09:54:40.720Z,23.46
2022-08-05T09:57:49.937Z,23.85
2022-08-05T10:01:13.494Z,24.22
2022-08-05T10:04:29.408Z,24.07
2022-08-05T10:08:36.660Z,24.45
2022-08-05T10:11:17.210Z,23.52
2022-08-05T10:14:26.621Z,23.37
2022-08-05T10:17:38.102Z,23.21
2022-08-05T10:20:48.440Z,23.73
2022-08-05T10:23:59.786Z,24.44
2022-08-05T10:27:04.932Z,23.61
2022-08-05T10:32:49.511Z,23.88
2022-08-05T10:34:12.734Z,23.96
2022-08-05T10:37:23.148Z,24.10
2022-08-05T10:41:10.070Z,23.78
2022-08-05T10:44:25.506Z,24.51
2022-08-05T10:47:36.191Z,24.42
2022-08-05T10:51:03.354Z,24.24
2022-08-05T10:54:28.580Z,24.77
2022-08-05T10:57:51.464Z,24.43
2022-08-05T11:01:02.774Z,26.27
2022-08-05T11:04:12.647Z,25.53
2022-08-05T11:07:32.911Z,24.24
2022-08-05T11:11:01.047Z,23.51
2022-08-05T11:14:57.700Z,23.60
2022-08-05T11:17:58.650Z,22.73
2022-08-05T11:21:25.903Z,23.62
2022-08-05T11:25:16.611Z,23.71
2022-08-05T11:28:56.709Z,24.73
2022-08-05T11:32:26.243Z,23.83
2022-08-05T11:36:04.448Z,23.35
2022-08-05T11:39:31.000Z,24.08
2022-08-05T11:42:43.237Z,23.58
2022-08-05T11:46:32.088Z,23.53
2022-08-05T11:49:27.753Z,23.75
2022-08-05T11:52:32.542Z,24.19
2022-08-05T11:55:38.182Z,24.14
2022-08-05T11:58:52.880Z,24.59
2022-08-05T12:01:58.975Z,24.64
2022-08-05T12:05:36.115Z,24.18
2022-08-05T12:08:51.235Z,24.30
2022-08-05T12:11:55.808Z,24.43
2022-08-05T12:15:00.115Z,24.20
2022-08-05T12:18:10.614Z,24.62
2022-08-05T12:21:20.670Z,24.31
2022-08-05T12:24:25.455Z,24.37
2022-08-05T12:27:33.355Z,24.63
2022-08-05T12:30:45.747Z,24.01
2022-08-05T12:33:50.323Z,24.26
2022-08-05T12:37:00.485Z,23.81
2022-08-05T12:40:11.076Z,24.34
2022-08-05T12:50:33.489Z,24.44
2022-08-05T12:53:44.099Z,24.71
2022-08-05T12:57:02.173Z,23.88
2022-08-05T13:02:02.217Z,24.15
2022-08-05T13:03:48.796Z,24.09
2022-08-05T13:06:57.916Z,23.40
2022-08-05T13:10:12.442Z,23.54
2022-08-05T13:14:06.133Z,23.82
2022-08-05T13:16:54.155Z,24.33
2022-08-05T13:20:02.824Z,23.63
2022-08-05T13:23:07.527Z,23.49
2022-08-05T13:26:16.081Z,23.33
2022-08-05T13:29:38.087Z,23.50
2022-08-05T13:36:52.167Z,23.47
2022-08-05T13:40:15.973Z,23.26
2022-08-05T13:43:43.578Z,23.51
2022-08-05T13:47:01.704Z,22.81
2022-08-05T13:50:16.674Z,23.40
2022-08-05T13:53:22.036Z,23.17
2022-08-05T13:56:26.334Z,23.28
2022-08-05T13:59:31.744Z,23.18
2022-08-05T14:02:35.874Z,23.19
2022-08-05T14:06:24.595Z,23.21
2022-08-05T14:09:08.482Z,22.95
2022-08-05T14:12:17.466Z,22.55
2022-08-05T14:16:05.261Z,23.48
2022-08-05T14:18:49.217Z,22.82
2022-08-05T14:22:09.178Z,23.35
2022-08-05T14:25:18.996Z,23.00
2022-08-05T14:28:27.410Z,23.10
2022-08-05T14:40:42.307Z,22.88
2022-08-05T14:44:19.977Z,23.26
2022-08-05T14:48:05.162Z,22.66
2022-08-05T14:50:48.691Z,22.68
2022-08-05T14:54:26.139Z,22.86
2022-08-05T14:57:19.551Z,23.18
2022-08-05T15:00:28.143Z,23.37
2022-08-05T15:03:39.302Z,23.12
2022-08-05T15:06:49.592Z,22.95
2022-08-05T15:09:55.744Z,22.72
2022-08-05T15:13:03.520Z,22.88
2022-08-05T15:16:08.392Z,23.38
2022-08-05T15:19:23.362Z,23.30
2022-08-05T15:22:28.703Z,23.53
2022-08-05T15:31:23.121Z,23.50
2022-08-05T15:34:47.138Z,23.77
2022-08-05T15:38:33.086Z,23.60
2022-08-05T15:41:25.863Z,24.15
2022-08-05T15:45:03.467Z,24.06
2022-08-05T15:48:52.918Z,24.30
2022-08-05T15:52:16.568Z,24.21
2022-08-05T15:56:02.777Z,24.30
2022-08-05T15:59:02.376Z,23.96
2022-08-05T16:02:09.572Z,24.10
2022-08-05T16:05:18.879Z,24.49
2022-08-05T16:08:32.710Z,23.94
2022-08-05T16:11:43.080Z,24.16
2022-08-05T16:14:47.263Z,23.72
2022-08-05T16:17:57.754Z,23.60
2022-08-05T16:21:04.818Z,23.99
2022-08-05T16:24:41.265Z,23.58
2022-08-05T16:35:42.276Z,23.43
2022-08-05T16:39:00.189Z,23.58
2022-08-05T16:42:15.180Z,23.36
2022-08-05T16:46:03.478Z,22.78
2022-08-05T16:49:02.890Z,23.15
2022-08-05T16:52:07.927Z,22.82
2022-08-05T16:55:11.922Z,22.90
2022-08-05T16:58:21.197Z,22.79
2022-08-05T17:01:53.255Z,22.86
2022-08-05T17:09:57.495Z,23.00
2022-08-05T17:13:17.105Z,23.11
2022-08-05T17:16:32.577Z,23.26
2022-08-05T17:19:41.667Z,23.27
2022-08-05T17:22:46.341Z,23.24
2022-08-05T17:25:59.323Z,23.38
2022-08-05T17:29:07.466Z,23.52
2022-08-05T17:32:44.298Z,23.83
2022-08-05T17:40:39.094Z,25.48
2022-08-05T17:43:54.296Z,25.95
2022-08-05T17:47:04.229Z,25.76
2022-08-05T17:54:23.254Z,27.37
2022-08-05T18:01:21.977Z,28.21
2022-08-05T18:04:29.938Z,28.10
2022-08-05T18:07:59.420Z,28.90
2022-08-05T18:11:05.047Z,29.00
2022-08-05T18:14:20.383Z,30.24
2022-08-05T18:22:09.670Z,29.96
2022-08-05T18:25:48.432Z,30.68
2022-08-05T18:29:14.120Z,30.86
2022-08-05T18:33:46.566Z,31.44
2022-08-05T18:37:42.884Z,32.55
2022-08-05T18:41:53.472Z,32.71
2022-08-05T18:44:32.971Z,32.85
2022-08-05T18:48:30.169Z,33.24
2022-08-05T18:52:06.257Z,34.15
2022-08-05T18:55:14.931Z,33.96
2022-08-05T18:58:22.178Z,33.91
2022-08-05T19:01:47.741Z,34.12
2022-08-05T19:05:02.532Z,34.85
2022-08-05T19:18:29.893Z,36.39
2022-08-05T19:21:36.205Z,36.34
2022-08-05T19:25:08.061Z,36.56
2022-08-05T19:28:14.012Z,35.99
2022-08-05T19:31:21.423Z,36.85
2022-08-05T19:34:29.838Z,37.66
2022-08-05T19:37:47.386Z,37.66
2022-08-05T19:40:58.452Z,38.31
2022-08-05T19:44:13.113Z,37.95
2022-08-05T19:47:18.483Z,38.09
2022-08-05T19:50:24.861Z,38.33
2022-08-05T19:54:05.011Z,38.37
2022-08-05T19:57:49.355Z,38.12
2022-08-05T20:00:56.018Z,38.69
2022-08-05T20:04:23.064Z,38.60
2022-08-05T20:07:57.656Z,39.27
2022-08-05T20:11:04.993Z,39.72
2022-08-05T20:14:14.137Z,39.30
2022-08-05T20:17:45.853Z,39.50
2022-08-05T20:20:59.919Z,39.57
2022-08-05T20:24:12.677Z,39.64
2022-08-05T20:27:41.938Z,39.94
2022-08-05T20:30:47.913Z,40.14
2022-08-05T20:33:58.089Z,40.41
2022-08-05T20:37:02.209Z,40.42
2022-08-05T20:40:14.291Z,40.66
2022-08-05T20:43:20.080Z,40.99
2022-08-05T20:46:50.269Z,40.65
2022-08-05T20:50:02.461Z,41.17
2022-08-05T20:53:16.283Z,41.19
2022-08-05T20:56:44.887Z,41.67
2022-08-05T21:00:21.037Z,42.15
2022-08-05T21:03:20.520Z,41.68
2022-08-05T21:06:28.697Z,42.03
2022-08-05T21:09:50.274Z,42.17
2022-08-05T21:13:11.219Z,42.09
2022-08-05T21:16:20.025Z,42.86
2022-08-05T21:19:29.168Z,43.45
2022-08-05T21:22:54.250Z,42.66
2022-08-05T21:25:59.400Z,43.55
2022-08-05T21:29:07.610Z,43.80
2022-08-05T21:32:26.694Z,43.99
2022-08-05T21:36:00.192Z,44.06
2022-08-05T21:39:14.333Z,43.23
2022-08-05T21:42:41.411Z,43.16
2022-08-05T21:46:04.042Z,44.16
2022-08-05T21:49:59.271Z,44.26
2022-08-05T21:52:40.445Z,44.72
2022-08-05T21:56:16.307Z,44.68
2022-08-05T21:59:24.982Z,46.04
2022-08-05T22:02:45.710Z,46.03
2022-08-05T22:05:55.553Z,44.96
2022-08-05T22:09:00.742Z,44.90
2022-08-05T22:12:12.852Z,44.50
2022-08-05T22:16:01.239Z,45.40
2022-08-05T22:20:00.579Z,45.71
2022-08-05T22:22:54.141Z,45.31
2022-08-05T22:26:17.027Z,45.22
2022-08-05T22:29:26.255Z,45.17
2022-08-05T22:32:33.985Z,45.99
2022-08-05T22:35:49.286Z,46.76
2022-08-05T22:38:53.709Z,46.23
2022-08-05T22:42:09.401Z,45.91
2022-08-05T22:45:16.086Z,47.76
2022-08-05T22:48:22.013Z,47.02
2022-08-05T22:52:05.805Z,47.14
2022-08-05T22:55:00.260Z,46.63
2022-08-05T22:58:11.607Z,46.74
2022-08-05T23:01:21.808Z,47.48
2022-08-05T23:04:52.131Z,47.76
2022-08-05T23:08:04.885Z,48.31
2022-08-05T23:11:10.954Z,48.09
2022-08-05T23:14:22.563Z,47.91
2022-08-05T23:18:01.133Z,47.98
2022-08-05T23:21:10.265Z,47.43
2022-08-05T23:24:16.444Z,47.50
2022-08-05T23:31:16.991Z,47.17
2022-08-05T23:34:25.962Z,47.88
2022-08-05T23:37:36.710Z,47.10
2022-08-05T23:44:05.230Z,47.86
2022-08-05T23:47:15.476Z,48.70
2022-08-05T23:50:44.284Z,48.91
2022-08-05T23:53:53.096Z,49.20
2022-08-05T23:57:09.731Z,48.96
